Time;durP1;ratioP1;P1;durP2;ratioP2;P2;SDS_P1;SDS_P2;PMS_P1;PMS_P2;Temp;Humidity;BMP_temperature;BMP_pressure;BME280_temperature;BME280_humidity;BME280_pressure;Samples;Min_cycle;Max_cycle;Signal;HPM_P1;HPM_P2
2021/08/17 00:00:01;;;;;;;3.85;1.85;;;26.20;99.90;;;;;;5012765;28;20113;-72
2021/08/17 00:02:30;;;;;;;2.03;1.70;;;26.20;99.90;;;;;;5013062;28;20033;-73
2021/08/17 00:04:55;;;;;;;2.75;2.08;;;26.00;99.90;;;;;;5012811;28;20041;-73
2021/08/17 00:07:26;;;;;;;4.13;1.95;;;25.80;99.90;;;;;;5013479;28;20535;-73
2021/08/17 00:10:01;;;;;;;2.30;2.10;;;25.80;99.90;;;;;;5018634;28;20022;-73
2021/08/17 00:12:27;;;;;;;2.92;2.47;;;25.80;99.90;;;;;;5033778;28;20025;-72
2021/08/17 00:15:04;;;;;;;2.67;2.22;;;25.70;99.90;;;;;;5032088;28;20027;-73
2021/08/17 00:17:37;;;;;;;4.65;1.75;;;25.70;99.90;;;;;;5037339;28;20036;-74
2021/08/17 00:20:17;;;;;;;;;;;;;;;;;;;;;
2021/08/17 00:22:57;;;;;;;3.08;2.10;;;25.70;99.90;;;;;;5035253;28;20040;-74
2021/08/17 00:25:46;;;;;;;;;;;;;;;;;;;;;
2021/08/17 00:28:13;;;;;;;4.80;2.70;;;25.70;99.90;;;;;;5014258;28;20033;-72
2021/08/17 00:30:39;;;;;;;3.25;2.22;;;25.60;99.90;;;;;;5013167;28;20101;-72
2021/08/17 00:33:04;;;;;;;3.65;2.42;;;25.60;99.90;;;;;;5021897;28;20095;-72
2021/08/17 00:35:34;;;;;;;8.25;2.65;;;25.60;99.90;;;;;;5025021;28;20021;-73
2021/08/17 00:38:01;;;;;;;5.15;2.25;;;25.50;99.90;;;;;;5019771;28;20033;-73
2021/08/17 00:40:27;;;;;;;5.55;2.45;;;25.60;99.90;;;;;;5025645;28;20021;-71
2021/08/17 00:42:53;;;;;;;3.25;1.88;;;25.60;99.90;;;;;;5020323;28;20030;-71
2021/08/17 00:45:24;;;;;;;3.42;2.30;;;25.50;99.90;;;;;;5019650;28;20030;-71
2021/08/17 00:47:57;;;;;;;6.88;2.60;;;25.50;99.90;;;;;;5013766;28;20041;-71
2021/08/17 00:50:27;;;;;;;5.65;2.05;;;25.50;99.90;;;;;;5016738;28;20025;-73
2021/08/17 00:52:57;;;;;;;5.28;2.50;;;25.40;99.90;;;;;;5014426;28;20049;-73
2021/08/17 00:55:23;;;;;;;8.63;2.60;;;25.50;99.90;;;;;;5013246;28;20633;-72
2021/08/17 00:57:49;;;;;;;3.47;2.25;;;25.50;99.90;;;;;;5011800;28;20030;-74
2021/08/17 01:00:16;;;;;;;5.55;1.92;;;25.50;99.90;;;;;;5011263;28;20084;-72
2021/08/17 01:02:42;;;;;;;6.65;3.28;;;25.50;99.90;;;;;;5011589;28;20137;-72
2021/08/17 01:05:11;;;;;;;5.20;2.13;;;25.40;99.90;;;;;;5025404;28;20082;-73
2021/08/17 01:07:38;;;;;;;2.42;2.22;;;25.50;99.90;;;;;;5029994;28;20029;-73
2021/08/17 01:10:09;;;;;;;3.97;1.73;;;25.50;99.90;;;;;;5030203;28;20033;-73
2021/08/17 01:12:36;;;;;;;6.75;2.63;;;25.60;99.90;;;;;;5030614;28;20026;-73
2021/08/17 01:15:04;;;;;;;5.10;2.40;;;25.60;99.90;;;;;;5030990;28;20036;-73
2021/08/17 01:17:30;;;;;;;3.30;1.80;;;25.60;99.90;;;;;;5029352;28;20159;-73
2021/08/17 01:19:56;;;;;;;7.82;2.17;;;25.70;99.90;;;;;;5032130;28;20103;-73
2021/08/17 01:22:29;;;;;;;4.85;2.17;;;25.60;99.90;;;;;;5029379;28;20120;-72
2021/08/17 01:25:06;;;;;;;10.75;2.78;;;25.60;99.90;;;;;;5019585;28;20034;-72
2021/08/17 01:27:32;;;;;;;3.47;3.03;;;25.60;99.90;;;;;;5018735;28;20017;-72
2021/08/17 01:29:58;;;;;;;2.60;2.40;;;25.50;99.90;;;;;;5028951;28;20032;-72
2021/08/17 01:32:25;;;;;;;5.97;2.55;;;25.70;99.90;;;;;;5031106;28;20259;-72
2021/08/17 01:34:51;;;;;;;3.00;2.70;;;25.80;99.90;;;;;;5030615;28;20018;-72
2021/08/17 01:37:17;;;;;;;3.95;3.33;;;25.60;99.90;;;;;;5021040;28;20029;-72
2021/08/17 01:39:43;;;;;;;6.30;3.42;;;25.10;99.90;;;;;;5016452;28;20114;-72
2021/08/17 01:42:08;;;;;;;7.05;3.22;;;24.70;99.90;;;;;;5012026;28;20034;-72
2021/08/17 01:44:34;;;;;;;5.35;2.97;;;24.50;99.90;;;;;;5011781;28;20049;-72
2021/08/17 01:47:00;;;;;;;5.25;3.08;;;24.10;99.90;;;;;;5016945;28;20023;-72
2021/08/17 01:49:26;;;;;;;8.25;3.40;;;23.90;99.90;;;;;;5010276;28;20091;-72
2021/08/17 01:51:51;;;;;;;4.25;2.83;;;23.70;99.90;;;;;;5010490;28;20029;-72
2021/08/17 01:54:18;;;;;;;4.55;3.33;;;23.50;99.90;;;;;;5012841;28;20033;-72
2021/08/17 01:56:44;;;;;;;5.43;4.93;;;23.50;99.90;;;;;;5011919;28;20132;-73
2021/08/17 01:59:13;;;;;;;4.57;3.53;;;23.40;99.90;;;;;;5011349;28;20033;-72
2021/08/17 02:01:40;;;;;;;8.63;3.38;;;23.50;99.90;;;;;;5010434;28;20116;-72
2021/08/17 02:04:06;;;;;;;6.50;3.88;;;23.60;99.90;;;;;;5012813;28;20036;-72
2021/08/17 02:06:32;;;;;;;4.60;3.60;;;24.00;99.90;;;;;;5010450;28;20022;-72
2021/08/17 02:08:58;;;;;;;5.05;3.63;;;24.20;99.90;;;;;;5010988;28;20504;-73
2021/08/17 02:11:23;;;;;;;6.22;3.85;;;24.50;99.90;;;;;;5011726;28;20026;-71
2021/08/17 02:13:49;;;;;;;4.72;3.45;;;24.60;99.90;;;;;;5011621;28;20022;-72
2021/08/17 02:16:15;;;;;;;4.78;4.30;;;24.70;99.90;;;;;;5011440;28;20049;-73
2021/08/17 02:18:41;;;;;;;5.57;4.25;;;24.80;99.90;;;;;;5010062;28;20421;-72
2021/08/17 02:21:06;;;;;;;3.42;2.97;;;24.70;99.90;;;;;;5014248;28;20029;-73
2021/08/17 02:23:33;;;;;;;7.00;3.63;;;24.60;99.90;;;;;;5031062;28;20083;-73
2021/08/17 02:25:59;;;;;;;4.82;3.42;;;24.60;99.90;;;;;;5029329;28;20115;-73
2021/08/17 02:28:24;;;;;;;4.25;3.60;;;24.70;99.90;;;;;;5028693;28;20061;-72
2021/08/17 02:30:52;;;;;;;4.75;3.10;;;24.90;99.90;;;;;;5029386;28;20080;-72
2021/08/17 02:33:19;;;;;;;5.00;2.92;;;25.00;99.90;;;;;;5030905;28;20467;-72
2021/08/17 02:35:45;;;;;;;3.20;2.65;;;25.20;99.90;;;;;;5030020;28;20070;-72
2021/08/17 02:38:12;;;;;;;7.43;3.20;;;25.30;99.90;;;;;;5030131;28;20384;-73
2021/08/17 02:40:39;;;;;;;4.32;2.70;;;25.30;99.90;;;;;;5027953;28;20044;-72
2021/08/17 02:43:05;;;;;;;6.22;2.85;;;25.30;99.90;;;;;;5028507;28;20495;-72
2021/08/17 02:45:31;;;;;;;7.75;3.42;;;25.30;99.90;;;;;;5030744;28;20043;-72
2021/08/17 02:47:59;;;;;;;8.27;3.47;;;25.30;99.90;;;;;;5027315;28;20541;-72
2021/08/17 02:50:25;;;;;;;3.83;2.63;;;25.20;99.90;;;;;;5020447;28;20030;-72
2021/08/17 02:52:51;;;;;;;7.65;2.88;;;25.20;99.90;;;;;;5010640;28;20064;-72
2021/08/17 02:55:19;;;;;;;3.45;2.47;;;24.90;99.90;;;;;;5013558;28;20511;-72
2021/08/17 02:57:55;;;;;;;3.47;2.75;;;24.90;99.90;;;;;;5029510;28;20476;-72
2021/08/17 03:00:22;;;;;;;5.30;1.73;;;24.80;99.90;;;;;;5013294;28;20034;-73
2021/08/17 03:02:48;;;;;;;2.03;1.83;;;24.60;99.90;;;;;;5010265;28;20034;-73
2021/08/17 03:05:15;;;;;;;2.25;1.58;;;24.50;99.90;;;;;;5011509;28;20076;-73
2021/08/17 03:07:54;;;;;;;8.05;1.98;;;24.60;99.90;;;;;;5013111;28;20063;-75
2021/08/17 03:10:21;;;;;;;5.25;2.17;;;24.60;99.90;;;;;;5012157;28;20045;-74
2021/08/17 03:12:47;;;;;;;4.38;2.08;;;24.60;99.90;;;;;;5021349;28;20033;-72
2021/08/17 03:15:12;;;;;;;5.32;1.77;;;24.40;99.90;;;;;;5028844;28;20022;-74
2021/08/17 03:17:39;;;;;;;2.25;1.58;;;24.40;99.90;;;;;;5023968;28;20395;-72
2021/08/17 03:20:07;;;;;;;3.72;1.80;;;24.40;99.90;;;;;;5011119;28;20254;-72
2021/08/17 03:22:33;;;;;;;8.07;2.63;;;24.20;99.90;;;;;;5030190;28;20041;-72
2021/08/17 03:25:03;;;;;;;8.95;1.50;;;24.30;99.90;;;;;;5020150;28;20026;-74
2021/08/17 03:27:31;;;;;;;4.35;1.63;;;24.10;99.90;;;;;;5027085;28;20113;-73
2021/08/17 03:29:57;;;;;;;2.42;1.90;;;24.00;99.90;;;;;;5010792;28;20068;-73
2021/08/17 03:32:24;;;;;;;2.85;1.75;;;23.90;99.90;;;;;;5012165;28;20105;-72
2021/08/17 03:34:51;;;;;;;4.47;2.03;;;24.00;99.90;;;;;;5032323;28;20075;-72
2021/08/17 03:37:18;;;;;;;3.58;1.83;;;24.10;99.90;;;;;;5031751;28;20029;-74
2021/08/17 03:39:43;;;;;;;3.55;3.15;;;24.20;99.90;;;;;;5025859;28;20128;-73
2021/08/17 03:42:10;;;;;;;7.10;3.10;;;24.00;99.90;;;;;;5015416;28;20121;-73
2021/08/17 03:44:35;;;;;;;7.68;2.05;;;24.20;99.90;;;;;;5014225;28;20034;-73
2021/08/17 03:47:01;;;;;;;3.33;1.92;;;24.20;99.90;;;;;;5013051;28;20157;-73
2021/08/17 03:49:27;;;;;;;2.60;1.95;;;24.30;99.90;;;;;;5014094;28;20124;-73
2021/08/17 03:51:53;;;;;;;6.35;2.00;;;24.30;99.90;;;;;;5023775;28;20396;-73
2021/08/17 03:54:19;;;;;;;2.13;1.83;;;24.20;99.90;;;;;;5015076;28;20055;-73
2021/08/17 03:56:50;;;;;;;5.70;2.10;;;24.30;99.90;;;;;;5014800;28;20021;-72
2021/08/17 03:59:16;;;;;;;3.85;1.60;;;24.20;99.90;;;;;;5012871;28;20029;-71
2021/08/17 04:01:42;;;;;;;1.77;1.52;;;24.40;99.90;;;;;;5018313;28;20037;-72
2021/08/17 04:04:08;;;;;;;1.42;1.25;;;24.40;99.90;;;;;;5031777;28;20087;-73
2021/08/17 04:06:34;;;;;;;3.92;1.77;;;24.40;99.90;;;;;;5031990;28;20053;-73
2021/08/17 04:09:00;;;;;;;6.05;1.58;;;24.40;99.90;;;;;;5017950;28;20076;-73
2021/08/17 04:11:26;;;;;;;2.95;2.65;;;24.40;99.90;;;;;;5012506;28;20101;-72
2021/08/17 04:13:51;;;;;;;6.50;2.42;;;24.20;99.90;;;;;;5013262;28;20026;-73
2021/08/17 04:16:17;;;;;;;6.68;1.83;;;24.10;99.90;;;;;;5012100;28;20022;-72
2021/08/17 04:18:43;;;;;;;5.40;1.58;;;24.00;99.90;;;;;;5012516;28;20389;-72
2021/08/17 04:21:09;;;;;;;2.17;1.77;;;24.00;99.90;;;;;;5014019;28;20102;-72
2021/08/17 04:23:35;;;;;;;2.38;1.80;;;24.10;99.90;;;;;;5025815;28;20025;-72
2021/08/17 04:26:00;;;;;;;5.97;2.15;;;23.90;99.90;;;;;;5012099;28;20037;-72
2021/08/17 04:28:27;;;;;;;4.80;2.33;;;23.90;99.90;;;;;;5015094;28;20026;-72
2021/08/17 04:30:53;;;;;;;6.80;2.20;;;23.80;99.90;;;;;;5015992;28;20033;-72
2021/08/17 04:33:18;;;;;;;1.73;1.55;;;23.60;99.90;;;;;;5015286;28;20344;-73
2021/08/17 04:35:44;;;;;;;6.60;1.88;;;23.50;99.90;;;;;;5020362;28;20022;-73
2021/08/17 04:38:10;;;;;;;4.28;2.97;;;23.60;99.90;;;;;;5023717;28;20491;-71
2021/08/17 04:40:36;;;;;;;5.47;2.08;;;23.60;99.90;;;;;;5024390;28;20045;-71
2021/08/17 04:43:01;;;;;;;6.70;2.13;;;23.40;99.90;;;;;;5012649;28;20504;-71
2021/08/17 04:45:27;;;;;;;4.30;2.15;;;23.50;99.90;;;;;;5013956;28;20072;-72
2021/08/17 04:47:53;;;;;;;3.20;2.25;;;23.50;99.90;;;;;;5012796;28;20112;-72
2021/08/17 04:50:21;;;;;;;3.33;2.08;;;23.60;99.90;;;;;;5012724;28;20046;-72
2021/08/17 04:52:47;;;;;;;3.33;2.53;;;23.60;99.90;;;;;;5015456;28;20030;-73
2021/08/17 04:55:14;;;;;;;4.47;2.17;;;23.60;99.90;;;;;;5031078;28;20633;-72
2021/08/17 04:57:54;;;;;;;2.63;2.40;;;23.50;99.90;;;;;;5012966;28;20065;-73
2021/08/17 05:00:22;;;;;;;6.30;3.35;;;23.30;99.90;;;;;;5012568;28;20026;-72
2021/08/17 05:02:49;;;;;;;10.13;2.60;;;23.30;99.90;;;;;;5011343;28;20026;-73
2021/08/17 05:05:15;;;;;;;7.93;2.70;;;23.30;99.90;;;;;;5025393;28;20025;-72
2021/08/17 05:07:41;;;;;;;7.20;2.55;;;23.50;99.90;;;;;;5031232;28;20041;-72
2021/08/17 05:10:09;;;;;;;7.03;3.20;;;23.40;99.90;;;;;;5031039;28;20036;-74
2021/08/17 05:12:36;;;;;;;4.82;2.25;;;23.50;99.90;;;;;;5028134;28;20028;-74
2021/08/17 05:15:04;;;;;;;4.35;2.30;;;23.60;99.90;;;;;;5024339;28;20164;-73
2021/08/17 05:17:30;;;;;;;3.35;2.17;;;23.60;99.90;;;;;;5014173;28;20431;-73
2021/08/17 05:19:55;;;;;;;3.88;1.88;;;23.40;99.90;;;;;;5013555;28;20129;-73
2021/08/17 05:22:21;;;;;;;5.07;1.80;;;23.30;99.90;;;;;;5011318;28;20048;-73
2021/08/17 05:24:47;;;;;;;4.72;1.90;;;23.30;99.90;;;;;;5019264;28;20447;-75
2021/08/17 05:27:13;;;;;;;2.13;1.90;;;23.10;99.90;;;;;;5030939;28;20128;-72
2021/08/17 05:29:38;;;;;;;5.60;2.40;;;23.10;99.90;;;;;;5022625;28;20128;-71
2021/08/17 05:32:05;;;;;;;8.18;3.00;;;23.20;99.90;;;;;;5011692;28;20144;-73
2021/08/17 05:34:31;;;;;;;3.97;1.67;;;23.10;99.90;;;;;;5012212;28;20021;-73
2021/08/17 05:36:58;;;;;;;3.35;2.38;;;23.10;99.90;;;;;;5011853;28;20029;-73
2021/08/17 05:39:24;;;;;;;3.03;1.42;;;23.20;99.90;;;;;;5013595;28;20021;-72
2021/08/17 05:41:51;;;;;;;3.20;2.15;;;23.30;99.90;;;;;;5022184;28;20034;-72
2021/08/17 05:44:19;;;;;;;3.10;1.42;;;23.20;99.90;;;;;;5027813;28;20026;-75
2021/08/17 05:46:45;;;;;;;5.72;1.83;;;23.20;99.90;;;;;;5013421;28;20026;-72
2021/08/17 05:49:11;;;;;;;3.50;1.45;;;23.20;99.90;;;;;;5025142;28;20029;-73
2021/08/17 05:51:37;;;;;;;2.63;1.27;;;23.20;99.90;;;;;;5029530;28;20033;-73
2021/08/17 05:54:02;;;;;;;14.27;1.65;;;23.20;99.90;;;;;;5031626;28;20033;-71
2021/08/17 05:56:30;;;;;;;7.72;1.50;;;23.10;99.90;;;;;;5026794;28;20026;-73
2021/08/17 05:58:56;;;;;;;5.70;1.95;;;23.20;99.90;;;;;;5023020;28;20505;-76
2021/08/17 06:01:22;;;;;;;3.65;1.55;;;23.20;99.90;;;;;;5031140;28;20033;-72
2021/08/17 06:03:47;;;;;;;8.18;2.22;;;23.30;99.90;;;;;;5030287;28;20025;-73
2021/08/17 06:06:13;;;;;;;6.22;1.70;;;23.20;99.90;;;;;;5031413;28;20066;-73
2021/08/17 06:08:39;;;;;;;4.03;1.98;;;23.20;99.90;;;;;;5019278;28;20435;-71
2021/08/17 06:11:05;;;;;;;2.90;1.38;;;23.20;99.90;;;;;;5010139;28;20189;-72
2021/08/17 06:13:30;;;;;;;3.22;1.73;;;23.20;99.90;;;;;;5011379;28;20053;-73
2021/08/17 06:15:57;;;;;;;2.60;0.90;;;23.20;99.90;;;;;;5011813;28;20026;-72
2021/08/17 06:18:24;;;;;;;1.33;0.93;;;23.10;99.90;;;;;;5012047;28;20022;-73
2021/08/17 06:20:49;;;;;;;3.55;1.02;;;23.20;99.90;;;;;;5009831;28;20061;-73
2021/08/17 06:23:15;;;;;;;5.20;1.00;;;23.30;99.90;;;;;;5011100;28;20468;-71
2021/08/17 06:25:41;;;;;;;2.95;1.10;;;23.40;99.90;;;;;;5009990;28;20030;-73
2021/08/17 06:28:08;;;;;;;2.13;1.05;;;23.50;99.90;;;;;;5026615;28;20061;-74
2021/08/17 06:30:34;;;;;;;4.60;0.82;;;23.50;99.90;;;;;;5029147;28;20087;-72
2021/08/17 06:33:00;;;;;;;0.85;0.52;;;23.60;99.90;;;;;;5029013;28;20027;-72
2021/08/17 06:35:26;;;;;;;1.33;0.80;;;23.60;99.90;;;;;;5018267;28;20026;-71
2021/08/17 06:37:52;;;;;;;3.97;0.90;;;23.60;99.90;;;;;;5014079;28;20434;-74
2021/08/17 06:40:18;;;;;;;6.35;1.10;;;23.70;99.90;;;;;;5027623;28;20052;-71
2021/08/17 06:42:44;;;;;;;0.93;0.55;;;23.70;99.90;;;;;;5029050;28;20025;-72
2021/08/17 06:45:11;;;;;;;3.03;0.88;;;23.70;99.90;;;;;;5014802;28;20036;-73
2021/08/17 06:47:51;;;;;;;1.60;0.60;;;23.70;99.90;;;;;;5010809;28;20033;-72
2021/08/17 06:50:18;;;;;;;2.75;0.55;;;23.80;99.90;;;;;;5010735;28;20079;-72
2021/08/17 06:52:44;;;;;;;1.27;0.70;;;23.80;99.90;;;;;;5009164;28;20129;-72
2021/08/17 06:55:11;;;;;;;4.00;1.13;;;23.80;99.90;;;;;;5009360;28;20177;-72
2021/08/17 06:57:38;;;;;;;2.72;0.75;;;23.90;99.90;;;;;;5017922;28;20060;-71
2021/08/17 07:00:07;;;;;;;6.43;0.68;;;23.90;99.90;;;;;;5030919;28;20033;-73
2021/08/17 07:02:33;;;;;;;1.35;0.80;;;23.90;99.90;;;;;;5028309;28;20038;-73
2021/08/17 07:04:59;;;;;;;4.28;1.23;;;23.80;99.90;;;;;;5029882;28;20079;-72
2021/08/17 07:07:25;;;;;;;2.05;1.13;;;23.90;99.90;;;;;;5011293;28;20030;-73
2021/08/17 07:09:50;;;;;;;6.15;1.13;;;23.90;99.90;;;;;;5009088;28;20415;-72
2021/08/17 07:12:16;;;;;;;1.13;0.68;;;24.10;99.90;;;;;;5011300;28;20026;-72
2021/08/17 07:14:42;;;;;;;3.42;1.10;;;24.00;99.90;;;;;;5029063;28;20025;-69
2021/08/17 07:17:08;;;;;;;6.28;1.00;;;24.10;99.90;;;;;;5027454;28;20024;-71
2021/08/17 07:19:33;;;;;;;5.78;2.15;;;24.10;99.90;;;;;;5008836;28;20515;-71
2021/08/17 07:22:01;;;;;;;5.35;1.00;;;24.20;99.90;;;;;;5010168;28;20062;-74
2021/08/17 07:24:27;;;;;;;1.55;1.10;;;24.40;99.90;;;;;;5009074;28;20100;-72
2021/08/17 07:26:53;;;;;;;6.30;1.55;;;24.40;99.90;;;;;;5009950;28;20033;-72
2021/08/17 07:29:19;;;;;;;4.68;1.75;;;24.60;99.90;;;;;;5009741;28;20030;-72
2021/08/17 07:31:45;;;;;;;3.58;1.25;;;24.90;99.90;;;;;;5020167;28;20029;-70
2021/08/17 07:34:10;;;;;;;6.13;1.40;;;24.80;99.90;;;;;;5027997;28;20032;-71
2021/08/17 07:36:36;;;;;;;8.27;1.52;;;25.00;99.90;;;;;;5027869;28;20056;-72
2021/08/17 07:39:07;;;;;;;4.28;1.70;;;25.30;99.90;;;;;;5028147;28;20101;-73
2021/08/17 07:41:34;;;;;;;2.80;2.53;;;25.20;99.90;;;;;;5021236;28;20036;-73
2021/08/17 07:44:00;;;;;;;6.00;1.63;;;25.30;99.90;;;;;;5024259;28;20104;-70
2021/08/17 07:46:26;;;;;;;4.38;1.80;;;25.30;99.90;;;;;;5028733;28;20105;-70
2021/08/17 07:48:52;;;;;;;2.47;1.80;;;25.30;99.90;;;;;;5008656;28;20030;-69
2021/08/17 07:51:18;;;;;;;2.78;2.03;;;25.20;99.90;;;;;;5010282;28;20034;-71
2021/08/17 07:53:44;;;;;;;14.85;2.22;;;25.00;99.90;;;;;;5025515;28;20419;-71
2021/08/17 07:56:10;;;;;;;7.68;2.10;;;24.80;99.90;;;;;;5012316;28;20021;-70
2021/08/17 07:58:36;;;;;;;11.85;4.28;;;24.50;99.90;;;;;;5019212;28;20022;-71
2021/08/17 08:01:03;;;;;;;7.65;3.72;;;24.60;99.90;;;;;;5028057;28;20431;-71
2021/08/17 08:03:28;;;;;;;9.57;3.10;;;24.50;99.90;;;;;;5017711;28;20033;-69
2021/08/17 08:05:54;;;;;;;12.10;5.25;;;24.80;99.90;;;;;;5021901;28;20026;-70
2021/08/17 08:08:20;;;;;;;3.35;1.50;;;24.60;99.90;;;;;;5009605;28;20026;-73
2021/08/17 08:10:46;;;;;;;7.68;3.17;;;24.80;99.90;;;;;;5009482;28;20029;-71
2021/08/17 08:13:12;;;;;;;4.07;1.50;;;24.80;99.90;;;;;;5008175;28;20381;-73
2021/08/17 08:15:39;;;;;;;6.70;2.17;;;24.70;99.90;;;;;;5009981;28;20034;-75
2021/08/17 08:18:06;;;;;;;2.35;1.83;;;25.10;99.90;;;;;;5014038;28;20030;-71
2021/08/17 08:20:32;;;;;;;5.25;1.98;;;25.00;99.90;;;;;;5016877;28;20037;-71
2021/08/17 08:22:58;;;;;;;2.70;1.73;;;25.00;99.90;;;;;;5016320;28;20026;-74
2021/08/17 08:25:24;;;;;;;6.82;1.65;;;25.00;99.90;;;;;;5014568;28;20109;-74
2021/08/17 08:27:50;;;;;;;4.65;3.03;;;25.00;99.90;;;;;;5014253;28;20034;-71
2021/08/17 08:30:17;;;;;;;4.55;2.03;;;24.90;99.90;;;;;;5014058;28;20029;-69
2021/08/17 08:32:48;;;;;;;8.35;2.10;;;25.00;99.90;;;;;;5012028;28;20076;-73
2021/08/17 08:35:16;;;;;;;6.22;1.65;;;25.20;99.90;;;;;;5013235;28;20054;-71
2021/08/17 08:37:41;;;;;;;6.13;1.98;;;25.20;99.90;;;;;;5013815;28;20064;-74
2021/08/17 08:40:09;;;;;;;2.30;1.70;;;25.00;99.90;;;;;;5011801;28;20148;-73
2021/08/17 08:42:35;;;;;;;4.40;1.48;;;25.20;99.90;;;;;;5013152;28;20100;-71
2021/08/17 08:45:01;;;;;;;4.47;1.30;;;25.00;99.90;;;;;;5013138;28;20026;-70
2021/08/17 08:47:28;;;;;;;4.57;1.60;;;24.80;99.90;;;;;;5013150;28;20677;-69
2021/08/17 08:49:53;;;;;;;3.08;1.05;;;24.90;99.90;;;;;;5012506;28;20124;-69
2021/08/17 08:52:20;;;;;;;4.68;1.52;;;24.70;99.90;;;;;;5028595;28;20108;-72
2021/08/17 08:54:46;;;;;;;2.10;1.08;;;24.70;99.90;;;;;;5031921;28;20130;-72
2021/08/17 08:57:12;;;;;;;5.43;1.30;;;24.80;99.90;;;;;;5033592;28;20022;-69
2021/08/17 08:59:40;;;;;;;3.78;2.00;;;24.90;99.90;;;;;;5035352;28;20100;-69
2021/08/17 09:02:09;;;;;;;2.60;1.48;;;24.60;99.90;;;;;;5034480;28;20539;-74
2021/08/17 09:04:36;;;;;;;2.22;1.67;;;24.40;99.90;;;;;;5030871;28;20037;-69
2021/08/17 09:07:03;;;;;;;1.30;1.20;;;24.40;99.90;;;;;;5029109;28;20385;-72
2021/08/17 09:09:29;;;;;;;1.95;1.45;;;24.50;99.90;;;;;;5012162;28;20030;-71
2021/08/17 09:11:57;;;;;;;0.73;0.70;;;24.60;99.90;;;;;;5012516;28;20018;-69
2021/08/17 09:14:24;;;;;;;3.25;1.90;;;24.70;99.90;;;;;;5025561;28;20063;-71
2021/08/17 09:16:53;;;;;;;3.30;1.63;;;24.70;99.90;;;;;;5031726;28;20052;-72
2021/08/17 09:19:26;;;;;;;2.80;1.70;;;25.00;99.90;;;;;;5031255;28;20045;-68
2021/08/17 09:21:53;;;;;;;1.38;1.23;;;25.00;99.90;;;;;;5030002;28;20087;-70
2021/08/17 09:24:20;;;;;;;2.75;1.50;;;24.90;99.90;;;;;;5032089;28;20049;-70
2021/08/17 09:26:51;;;;;;;2.00;1.48;;;24.90;99.90;;;;;;5030939;28;20430;-72
2021/08/17 09:29:32;;;;;;;1.02;0.80;;;25.00;99.90;;;;;;5029988;28;20060;-69
2021/08/17 09:32:01;;;;;;;3.33;1.40;;;25.20;99.90;;;;;;5017261;28;20026;-72
2021/08/17 09:34:34;;;;;;;4.05;2.00;;;25.20;99.90;;;;;;5024113;28;20056;-71
2021/08/17 09:37:05;;;;;;;6.00;3.80;;;25.40;99.90;;;;;;5030295;28;20030;-68
2021/08/17 09:39:39;;;;;;;7.05;2.85;;;25.40;99.90;;;;;;5032395;28;20056;-72
2021/08/17 09:42:13;;;;;;;2.60;1.60;;;25.60;99.90;;;;;;5030528;28;20040;-69
2021/08/17 09:44:39;;;;;;;1.77;1.38;;;25.90;99.90;;;;;;5031306;28;20054;-73
2021/08/17 09:47:05;;;;;;;3.88;0.98;;;26.10;99.90;;;;;;5031136;28;20025;-72
2021/08/17 09:49:32;;;;;;;4.40;1.20;;;26.10;99.90;;;;;;5029666;28;20428;-73
2021/08/17 09:52:18;;;;;;;2.92;1.98;;;25.80;99.90;;;;;;5010124;28;20018;-72
2021/08/17 09:54:46;;;;;;;1.30;1.17;;;25.80;99.90;;;;;;5010031;28;20034;-72
2021/08/17 09:57:12;;;;;;;0.93;0.82;;;26.00;99.90;;;;;;5011513;28;20022;-74
2021/08/17 09:59:41;;;;;;;1.50;0.93;;;26.40;99.90;;;;;;5018749;28;20060;-70
2021/08/17 10:02:08;;;;;;;3.28;1.38;;;26.40;99.90;;;;;;5032240;28;20086;-69
2021/08/17 10:04:36;;;;;;;1.48;1.08;;;26.50;99.90;;;;;;5020760;28;20036;-71
2021/08/17 10:07:04;;;;;;;3.42;1.35;;;26.40;99.90;;;;;;5030883;28;20041;-71
2021/08/17 10:09:31;;;;;;;2.92;1.00;;;26.30;99.90;;;;;;5029660;28;20029;-72
2021/08/17 10:11:58;;;;;;;1.30;1.20;;;25.90;99.90;;;;;;5029116;28;20026;-69
2021/08/17 10:14:23;;;;;;;3.38;3.05;;;25.90;99.90;;;;;;5031084;28;20362;-72
2021/08/17 10:16:49;;;;;;;3.88;1.55;;;26.00;99.90;;;;;;5019953;28;20077;-69
2021/08/17 10:19:25;;;;;;;3.80;0.85;;;26.20;99.90;;;;;;5016845;28;20104;-69
2021/08/17 10:21:55;;;;;;;2.65;2.45;;;26.20;99.90;;;;;;5026387;28;20030;-70
2021/08/17 10:24:31;;;;;;;2.35;1.33;;;26.20;99.90;;;;;;5010997;28;20057;-70
2021/08/17 10:27:26;;;;;;;5.35;0.75;;;26.30;99.90;;;;;;5011187;28;20053;-70
2021/08/17 10:30:03;;;;;;;0.90;0.75;;;26.50;99.90;;;;;;5011806;28;20044;-71
2021/08/17 10:32:57;;;;;;;2.72;1.00;;;26.40;99.90;;;;;;5009577;28;20057;-70
2021/08/17 10:35:32;;;;;;;1.73;0.90;;;26.20;99.90;;;;;;5011231;28;20097;-69
2021/08/17 10:38:12;;;;;;;2.47;0.70;;;26.50;99.90;;;;;;5012465;28;20026;-71
2021/08/17 10:40:52;;;;;;;1.25;0.90;;;26.60;99.90;;;;;;5011955;28;20045;-70
2021/08/17 10:43:46;;;;;;;1.75;0.70;;;26.30;99.90;;;;;;5025623;28;20055;-70
2021/08/17 10:46:13;;;;;;;2.92;1.08;;;26.50;99.90;;;;;;5033555;28;20614;-70
2021/08/17 10:48:45;;;;;;;3.85;2.97;;;26.80;99.90;;;;;;5030224;28;20107;-71
2021/08/17 10:51:18;;;;;;;3.08;1.67;;;26.70;99.90;;;;;;5027394;28;20080;-70
2021/08/17 10:53:45;;;;;;;2.40;1.48;;;26.70;99.90;;;;;;5029488;28;20026;-69
2021/08/17 10:56:23;;;;;;;1.20;0.90;;;27.00;99.90;;;;;;5029731;28;20460;-70
2021/08/17 10:58:54;;;;;;;0.90;0.60;;;27.10;99.90;;;;;;5015780;28;20034;-73
2021/08/17 11:01:34;;;;;;;1.27;1.20;;;26.90;99.90;;;;;;5030554;28;20025;-69
2021/08/17 11:04:11;;;;;;;1.85;0.95;;;26.50;99.90;;;;;;5031383;28;20547;-70
2021/08/17 11:06:53;;;;;;;2.25;0.95;;;26.20;99.90;;;;;;5027924;28;20067;-68
2021/08/17 11:09:21;;;;;;;1.63;0.88;;;26.10;99.90;;;;;;5018202;28;20029;-75
2021/08/17 11:12:03;;;;;;;2.13;0.50;;;26.10;99.90;;;;;;5030723;28;20448;-68
2021/08/17 11:14:34;;;;;;;1.38;1.27;;;26.00;99.90;;;;;;5029230;28;20040;-71
2021/08/17 11:17:02;;;;;;;2.27;1.07;;;26.40;99.90;;;;;;5028963;28;20060;-73
2021/08/17 11:19:37;;;;;;;1.92;0.90;;;26.50;99.90;;;;;;5028085;28;20113;-73
2021/08/17 11:22:11;;;;;;;1.58;1.00;;;26.50;99.90;;;;;;5030201;28;20032;-72
2021/08/17 11:24:43;;;;;;;2.83;0.93;;;26.40;99.90;;;;;;5027130;28;20052;-71
2021/08/17 11:27:30;;;;;;;;;;;26.30;99.90;;;;;;5025782;28;20113;-73
2021/08/17 11:30:03;;;;;;;0.82;0.80;;;26.60;99.90;;;;;;5018182;28;19917;-71
2021/08/17 11:32:47;;;;;;;1.88;0.70;;;26.80;99.90;;;;;;5010593;28;20072;-73
2021/08/17 11:35:18;;;;;;;1.30;0.82;;;26.50;99.90;;;;;;5011115;28;20470;-72
2021/08/17 11:37:57;;;;;;;5.53;1.05;;;26.30;99.90;;;;;;5021635;28;20090;-70
2021/08/17 11:40:32;;;;;;;0.80;0.63;;;26.30;99.90;;;;;;5031599;28;20021;-72
2021/08/17 11:43:15;;;;;;;;;;;;;;;;;;;;;
2021/08/17 11:48:45;;;;;;;3.90;1.17;;;27.00;99.90;;;;;;5027618;28;20029;-72
2021/08/17 11:51:11;;;;;;;3.05;1.33;;;27.30;99.90;;;;;;5028825;28;20404;-71
2021/08/17 11:53:36;;;;;;;0.60;0.60;;;27.00;99.90;;;;;;5021249;28;20049;-74
2021/08/17 11:56:16;;;;;;;2.25;0.80;;;27.00;99.90;;;;;;5014081;28;20033;-72
2021/08/17 11:58:42;;;;;;;1.13;0.98;;;27.10;99.90;;;;;;5014247;28;20018;-72
2021/08/17 12:01:09;;;;;;;4.70;1.95;;;27.00;99.90;;;;;;5013090;28;20025;-73
2021/08/17 12:03:37;;;;;;;3.45;0.95;;;26.70;99.90;;;;;;5014405;28;20088;-75
2021/08/17 12:06:11;;;;;;;2.15;1.58;;;26.70;99.90;;;;;;5029788;28;20030;-73
2021/08/17 12:08:39;;;;;;;1.42;0.90;;;27.00;99.90;;;;;;5014882;28;20026;-70
2021/08/17 12:11:08;;;;;;;5.43;1.35;;;27.00;99.90;;;;;;5038209;28;20030;-72
2021/08/17 12:13:42;;;;;;;3.35;1.00;;;26.90;99.90;;;;;;5039127;28;20088;-73
2021/08/17 12:16:08;;;;;;;2.03;1.02;;;27.10;99.90;;;;;;5033516;28;20144;-75
2021/08/17 12:18:34;;;;;;;3.05;2.15;;;27.10;99.90;;;;;;5032362;28;20427;-71
2021/08/17 12:21:04;;;;;;;1.17;0.55;;;27.10;99.90;;;;;;5016529;28;20577;-72
2021/08/17 12:23:32;;;;;;;1.52;1.27;;;26.90;99.90;;;;;;5013751;28;20456;-71
2021/08/17 12:26:22;;;;;;;1.48;1.02;;;27.20;99.90;;;;;;5013736;28;20546;-70
2021/08/17 12:28:51;;;;;;;2.45;1.10;;;27.10;99.90;;;;;;5013444;28;20032;-71
2021/08/17 12:31:25;;;;;;;1.60;1.08;;;27.30;99.90;;;;;;5012074;28;20488;-70
2021/08/17 12:34:12;;;;;;;1.27;1.17;;;27.50;99.90;;;;;;5018043;28;20089;-68
2021/08/17 12:36:41;;;;;;;1.65;1.15;;;27.10;99.90;;;;;;5012875;28;20046;-70
2021/08/17 12:39:21;;;;;;;2.55;1.30;;;27.40;99.90;;;;;;5011410;28;20048;-70
2021/08/17 12:41:51;;;;;;;0.93;0.80;;;27.70;99.90;;;;;;5021498;28;20026;-69
2021/08/17 12:44:37;;;;;;;1.38;1.25;;;27.20;99.90;;;;;;5032542;28;20033;-70
2021/08/17 12:47:19;;;;;;;2.65;1.25;;;27.30;99.90;;;;;;5032788;28;20022;-69
2021/08/17 12:49:48;;;;;;;1.27;0.93;;;27.20;99.90;;;;;;5032473;28;20029;-70
2021/08/17 12:52:38;;;;;;;2.03;1.02;;;27.10;99.90;;;;;;5031843;28;20035;-71
2021/08/17 12:55:13;;;;;;;1.50;1.33;;;27.30;99.90;;;;;;5022331;28;20065;-71
2021/08/17 12:57:45;;;;;;;2.45;1.35;;;27.70;99.90;;;;;;5030672;28;20034;-69
2021/08/17 13:00:14;;;;;;;6.05;1.65;;;27.60;99.90;;;;;;5013860;28;20514;-70